createdAt,value
2023-04-26T00:00:30.971Z,89.33
2023-04-26T00:03:13.743Z,89.62
2023-04-26T00:05:42.952Z,90.13
2023-04-26T00:08:11.363Z,90.75
2023-04-26T00:10:40.973Z,90.94
2023-04-26T00:13:09.255Z,90.95
2023-04-26T00:15:37.740Z,90.73
2023-04-26T00:18:06.579Z,90.29
2023-04-26T00:20:35.228Z,89.85
2023-04-26T00:23:03.716Z,89.92
2023-04-26T00:25:32.017Z,89.63
2023-04-26T00:28:00.395Z,89.79
2023-04-26T00:30:29.370Z,89.47
2023-04-26T00:32:57.800Z,89.49
2023-04-26T00:35:26.162Z,89.65
2023-04-26T00:37:54.737Z,89.50
2023-04-26T00:40:23.240Z,89.42
2023-04-26T00:43:00.609Z,89.29
2023-04-26T00:45:29.446Z,90.46
2023-04-26T00:48:02.747Z,90.25
2023-04-26T00:50:32.935Z,90.05
2023-04-26T00:53:03.036Z,90.03
2023-04-26T00:55:31.780Z,89.91
2023-04-26T00:58:00.448Z,90.05
2023-04-26T01:00:29.853Z,89.83
2023-04-26T01:02:59.351Z,89.67
2023-04-26T01:05:27.945Z,89.55
2023-04-26T01:07:56.657Z,89.33
2023-04-26T01:10:25.953Z,89.41
2023-04-26T01:12:55.068Z,89.21
2023-04-26T01:15:23.839Z,89.11
2023-04-26T01:17:52.664Z,88.97
2023-04-26T01:20:21.329Z,88.73
2023-04-26T01:22:49.708Z,88.46
2023-04-26T01:25:19.383Z,88.26
2023-04-26T01:27:47.705Z,88.01
2023-04-26T01:30:16.197Z,87.75
2023-04-26T01:32:44.601Z,87.78
2023-04-26T01:35:13.061Z,87.89
2023-04-26T01:37:41.649Z,87.61
2023-04-26T01:40:11.468Z,87.58
2023-04-26T01:42:39.957Z,87.30
2023-04-26T01:45:08.636Z,87.24
2023-04-26T01:47:58.266Z,87.12
2023-04-26T01:50:27.220Z,87.14
2023-04-26T01:52:55.594Z,87.24
2023-04-26T01:55:24.082Z,87.21
2023-04-26T01:57:52.496Z,87.06
2023-04-26T02:00:20.751Z,87.08
2023-04-26T02:02:51.108Z,86.81
2023-04-26T02:05:19.757Z,86.72
2023-04-26T02:07:48.378Z,86.90
2023-04-26T02:10:16.947Z,86.97
2023-04-26T02:12:46.561Z,87.31
2023-04-26T02:15:15.406Z,87.37
2023-04-26T02:17:44.173Z,87.22
2023-04-26T02:20:13.072Z,87.37
2023-04-26T02:22:41.541Z,87.48
2023-04-26T02:25:10.224Z,87.36
2023-04-26T02:27:38.922Z,87.61
2023-04-26T02:30:08.260Z,87.62
2023-04-26T02:32:36.973Z,87.48
2023-04-26T02:35:05.963Z,87.62
2023-04-26T02:37:34.707Z,87.54
2023-04-26T02:40:05.618Z,87.36
2023-04-26T02:42:33.827Z,87.22
2023-04-26T02:45:02.131Z,87.24
2023-04-26T02:47:31.464Z,86.65
2023-04-26T02:50:00.205Z,86.62
2023-04-26T02:52:28.695Z,86.84
2023-04-26T02:54:56.874Z,87.10
2023-04-26T02:57:25.075Z,86.95
2023-04-26T02:59:53.540Z,87.14
2023-04-26T03:02:22.467Z,87.16
2023-04-26T03:04:51.551Z,87.13
2023-04-26T03:07:19.920Z,86.99
2023-04-26T03:09:48.408Z,86.75
2023-04-26T03:12:18.840Z,86.55
2023-04-26T03:14:47.635Z,86.59
2023-04-26T03:17:15.918Z,86.74
2023-04-26T03:19:44.364Z,86.63
2023-04-26T03:22:16.486Z,86.54
2023-04-26T03:24:45.986Z,86.60
2023-04-26T03:27:15.099Z,86.55
2023-04-26T03:29:44.332Z,86.02
2023-04-26T03:32:13.028Z,85.98
2023-04-26T03:34:41.772Z,86.26
2023-04-26T03:37:10.479Z,86.47
2023-04-26T03:39:40.285Z,86.74
2023-04-26T03:42:09.180Z,86.75
2023-04-26T03:44:38.386Z,87.10
2023-04-26T03:47:07.224Z,86.88
2023-04-26T03:49:35.767Z,86.38
2023-04-26T03:52:04.355Z,85.16
2023-04-26T03:54:32.738Z,84.82
2023-04-26T03:57:01.945Z,83.76
2023-04-26T03:59:31.039Z,83.31
2023-04-26T04:01:59.634Z,83.13
2023-04-26T04:04:28.356Z,82.43
2023-04-26T04:06:56.926Z,82.81
2023-04-26T04:09:25.436Z,82.76
2023-04-26T04:11:55.726Z,82.53
2023-04-26T04:14:24.517Z,82.39
2023-04-26T04:16:52.829Z,82.64
2023-04-26T04:19:26.457Z,82.61
2023-04-26T04:21:57.352Z,82.56
2023-04-26T04:24:26.558Z,82.40
2023-04-26T04:26:56.277Z,82.04
2023-04-26T04:29:25.142Z,82.35
2023-04-26T04:31:53.449Z,82.33
2023-04-26T04:34:24.026Z,82.64
2023-04-26T04:36:52.463Z,83.10
2023-04-26T04:39:21.355Z,83.88
2023-04-26T04:41:50.161Z,84.74
2023-04-26T04:44:20.889Z,85.37
2023-04-26T04:46:49.614Z,86.02
2023-04-26T04:49:19.047Z,86.46
2023-04-26T04:51:47.224Z,86.54
2023-04-26T04:54:18.178Z,87.22
2023-04-26T04:56:48.559Z,87.25
2023-04-26T04:59:17.724Z,87.09
2023-04-26T05:01:46.178Z,87.22
2023-04-26T05:04:16.435Z,87.59
2023-04-26T05:06:45.676Z,87.55
2023-04-26T05:09:14.151Z,87.80
2023-04-26T05:11:42.953Z,87.86
2023-04-26T05:14:14.148Z,88.55
2023-04-26T05:16:43.362Z,88.52
2023-04-26T05:19:13.534Z,88.58
2023-04-26T05:21:42.424Z,89.17
2023-04-26T05:24:11.424Z,88.94
2023-04-26T05:26:40.639Z,88.38
2023-04-26T05:29:22.112Z,87.77
2023-04-26T05:32:02.923Z,87.48
2023-04-26T05:34:44.486Z,86.75
2023-04-26T05:37:17.451Z,86.81
2023-04-26T05:39:46.044Z,86.82
2023-04-26T05:42:16.352Z,86.48
2023-04-26T05:44:46.699Z,85.77
2023-04-26T05:47:15.282Z,85.66
2023-04-26T05:49:43.771Z,85.76
2023-04-26T05:52:12.990Z,85.18
2023-04-26T05:54:41.565Z,84.91
2023-04-26T05:57:09.796Z,84.56
2023-04-26T05:59:40.342Z,84.65
2023-04-26T06:02:08.864Z,84.08
2023-04-26T06:04:37.788Z,83.65
2023-04-26T06:07:10.049Z,83.30
2023-04-26T06:09:38.418Z,82.97
2023-04-26T06:12:07.318Z,82.83
2023-04-26T06:14:37.233Z,82.57
2023-04-26T06:17:09.857Z,82.72
2023-04-26T06:19:38.360Z,82.44
2023-04-26T06:22:06.895Z,81.63
2023-04-26T06:24:35.481Z,81.06
2023-04-26T06:27:04.250Z,80.82
2023-04-26T06:29:33.878Z,80.76
2023-04-26T06:32:02.586Z,80.63
2023-04-26T06:34:31.783Z,80.64
2023-04-26T06:37:00.790Z,80.48
2023-04-26T06:39:29.527Z,80.70
2023-04-26T06:41:58.099Z,79.86
2023-04-26T06:44:29.621Z,79.68
2023-04-26T06:47:03.844Z,79.89
2023-04-26T06:49:33.549Z,79.41
2023-04-26T06:52:01.832Z,79.27
2023-04-26T06:54:31.426Z,79.11
2023-04-26T06:57:01.344Z,79.27
2023-04-26T06:59:30.160Z,79.10
2023-04-26T07:01:58.855Z,78.83
2023-04-26T07:04:27.684Z,78.95
2023-04-26T07:06:58.080Z,78.65
2023-04-26T07:09:26.365Z,79.24
2023-04-26T07:11:54.539Z,79.59
2023-04-26T07:14:23.678Z,79.71
2023-04-26T07:16:52.061Z,79.61
2023-04-26T07:19:20.816Z,79.76
2023-04-26T07:21:49.206Z,80.08
2023-04-26T07:24:17.897Z,80.40
2023-04-26T07:26:46.745Z,80.35
2023-04-26T07:29:15.381Z,79.82
2023-04-26T07:31:44.065Z,79.82
2023-04-26T07:34:12.261Z,79.74
2023-04-26T07:36:40.838Z,79.55
2023-04-26T07:39:11.073Z,79.68
2023-04-26T07:41:41.050Z,80.10
2023-04-26T07:44:11.592Z,80.44
2023-04-26T07:46:40.005Z,80.89
2023-04-26T07:49:09.311Z,81.35
2023-04-26T07:51:41.484Z,81.96
2023-04-26T07:54:10.585Z,81.89
2023-04-26T07:56:39.170Z,81.46
2023-04-26T07:59:07.966Z,81.71
2023-04-26T08:01:36.349Z,81.91
2023-04-26T08:04:05.807Z,82.11
2023-04-26T08:06:34.379Z,82.12
2023-04-26T08:09:03.452Z,82.20
2023-04-26T08:11:31.894Z,82.44
2023-04-26T08:14:03.491Z,82.28
2023-04-26T08:16:32.635Z,82.37
2023-04-26T08:19:03.204Z,82.72
2023-04-26T08:21:32.026Z,82.81
2023-04-26T08:24:00.623Z,82.88
2023-04-26T08:26:29.105Z,83.00
2023-04-26T08:28:57.997Z,83.15
2023-04-26T08:31:27.322Z,83.22
2023-04-26T08:33:55.887Z,83.40
2023-04-26T08:36:24.165Z,83.52
2023-04-26T08:38:52.433Z,83.72
2023-04-26T08:41:24.951Z,83.76
2023-04-26T08:43:56.403Z,83.81
2023-04-26T08:46:27.802Z,83.34
2023-04-26T08:49:13.716Z,82.97
2023-04-26T08:51:44.457Z,83.11
2023-04-26T08:54:13.333Z,82.69
2023-04-26T08:56:44.310Z,82.27
2023-04-26T08:59:14.958Z,82.59
2023-04-26T09:01:44.638Z,82.50
2023-04-26T09:04:13.553Z,82.43
2023-04-26T09:06:42.440Z,82.38
2023-04-26T09:09:13.793Z,82.53
2023-04-26T09:11:59.995Z,82.71
2023-04-26T09:14:28.272Z,82.65
2023-04-26T09:16:57.378Z,82.10
2023-04-26T09:19:37.218Z,82.20
2023-04-26T09:22:06.847Z,82.47
2023-04-26T09:24:53.118Z,81.77
2023-04-26T09:27:22.213Z,81.07
2023-04-26T09:30:06.158Z,80.63
2023-04-26T09:33:05.094Z,80.13
2023-04-26T09:35:38.818Z,79.69
2023-04-26T09:38:13.585Z,79.50
2023-04-26T09:40:47.392Z,79.60
2023-04-26T09:43:21.246Z,80.03
2023-04-26T09:45:58.793Z,79.78
2023-04-26T09:48:32.169Z,79.27
2023-04-26T09:51:11.436Z,78.65
2023-04-26T09:53:42.849Z,78.91
2023-04-26T09:56:17.637Z,78.92
2023-04-26T09:58:58.313Z,78.85
2023-04-26T10:01:30.225Z,78.54
2023-04-26T10:04:02.348Z,78.12
2023-04-26T10:06:30.692Z,77.89
2023-04-26T10:08:59.581Z,77.39
2023-04-26T10:11:29.083Z,76.90
2023-04-26T10:13:57.853Z,77.25
2023-04-26T10:16:26.412Z,77.24
2023-04-26T10:18:55.118Z,77.71
2023-04-26T10:21:31.865Z,77.56
2023-04-26T10:24:00.606Z,76.99
2023-04-26T10:26:50.613Z,77.36
2023-04-26T10:29:21.177Z,76.18
2023-04-26T10:32:02.402Z,76.53
2023-04-26T10:34:32.863Z,76.67
2023-04-26T10:37:17.819Z,76.91
2023-04-26T10:39:47.069Z,76.52
2023-04-26T10:42:28.666Z,76.58
2023-04-26T10:44:58.876Z,76.69
2023-04-26T10:47:32.003Z,76.23
2023-04-26T10:50:12.083Z,75.23
2023-04-26T10:53:04.076Z,75.50
2023-04-26T10:55:51.692Z,75.63
2023-04-26T10:58:34.639Z,75.95
2023-04-26T11:01:20.884Z,75.05
2023-04-26T11:03:59.186Z,74.83
2023-04-26T11:06:51.294Z,75.33
2023-04-26T11:09:39.643Z,75.27
2023-04-26T11:12:12.744Z,75.16
2023-04-26T11:14:46.444Z,75.56
2023-04-26T11:17:15.209Z,75.18
2023-04-26T11:19:46.916Z,75.34
2023-04-26T11:22:15.347Z,74.95
2023-04-26T11:24:43.627Z,73.70
2023-04-26T11:27:12.638Z,72.84
2023-04-26T11:29:41.425Z,72.39
2023-04-26T11:32:11.133Z,72.14
2023-04-26T11:34:39.723Z,70.11
2023-04-26T11:37:08.464Z,70.92
2023-04-26T11:39:37.483Z,71.76
2023-04-26T11:42:09.491Z,71.59
2023-04-26T11:44:39.155Z,71.51
2023-04-26T11:47:09.116Z,71.50
2023-04-26T11:49:40.876Z,71.60
2023-04-26T11:52:10.183Z,71.73
2023-04-26T11:54:38.733Z,71.82
2023-04-26T11:57:20.838Z,72.17
2023-04-26T11:59:49.264Z,72.40
2023-04-26T12:02:17.708Z,72.76
2023-04-26T12:04:46.813Z,73.27
2023-04-26T12:07:19.742Z,73.01
2023-04-26T12:09:47.990Z,71.20
2023-04-26T12:12:16.504Z,70.57
2023-04-26T12:14:47.554Z,69.85
2023-04-26T12:17:16.820Z,69.65
2023-04-26T12:19:45.028Z,69.44
2023-04-26T12:22:22.119Z,69.53
2023-04-26T12:24:50.394Z,69.67
2023-04-26T12:27:22.119Z,68.35
2023-04-26T12:29:50.848Z,69.24
2023-04-26T12:32:20.772Z,68.91
2023-04-26T12:34:51.509Z,67.54
2023-04-26T12:37:19.991Z,67.70
2023-04-26T12:39:48.272Z,68.22
2023-04-26T12:42:16.969Z,68.34
2023-04-26T12:44:45.356Z,67.89
2023-04-26T12:47:14.349Z,68.04
2023-04-26T12:49:42.737Z,66.98
2023-04-26T12:52:11.322Z,67.01
2023-04-26T12:54:39.538Z,66.97
2023-04-26T12:57:08.396Z,66.98
2023-04-26T12:59:36.887Z,66.66
2023-04-26T13:02:05.070Z,66.64
2023-04-26T13:04:36.225Z,66.33
2023-04-26T13:07:06.746Z,66.43
2023-04-26T13:09:35.341Z,66.35
2023-04-26T13:12:04.216Z,65.74
2023-04-26T13:14:32.424Z,65.71
2023-04-26T13:17:01.132Z,65.73
2023-04-26T13:19:29.793Z,65.88
2023-04-26T13:21:57.983Z,65.89
2023-04-26T13:24:26.565Z,66.00
2023-04-26T13:26:55.665Z,66.19
2023-04-26T13:29:24.324Z,66.14
2023-04-26T13:31:52.954Z,66.16
2023-04-26T13:34:22.159Z,66.25
2023-04-26T13:36:50.880Z,66.25
2023-04-26T13:39:19.838Z,66.42
2023-04-26T13:41:48.128Z,66.37
2023-04-26T13:44:16.611Z,66.11
2023-04-26T13:46:45.272Z,65.30
2023-04-26T13:49:14.809Z,64.91
2023-04-26T13:51:43.499Z,64.52
2023-04-26T13:54:12.104Z,64.61
2023-04-26T13:56:40.781Z,64.04
2023-04-26T13:59:08.957Z,65.00
2023-04-26T14:01:37.390Z,64.91
2023-04-26T14:04:06.449Z,65.52
2023-04-26T14:06:37.387Z,66.01
2023-04-26T14:09:05.851Z,66.15
2023-04-26T14:11:34.176Z,66.09
2023-04-26T14:14:02.453Z,66.33
2023-04-26T14:16:31.084Z,66.19
2023-04-26T14:18:59.932Z,66.00
2023-04-26T14:21:28.324Z,66.15
2023-04-26T14:23:56.801Z,66.27
2023-04-26T14:26:26.613Z,66.41
2023-04-26T14:28:57.047Z,66.39
2023-04-26T14:31:26.604Z,66.18
2023-04-26T14:33:56.578Z,66.12
2023-04-26T14:36:24.858Z,66.14
2023-04-26T14:38:53.247Z,66.20
2023-04-26T14:41:21.938Z,65.61
2023-04-26T14:43:51.038Z,64.29
2023-04-26T14:46:19.913Z,64.04
2023-04-26T14:48:48.428Z,63.58
2023-04-26T14:51:17.009Z,63.46
2023-04-26T14:53:45.312Z,62.92
2023-04-26T14:56:13.887Z,60.56
2023-04-26T14:58:42.172Z,60.89
2023-04-26T15:01:10.832Z,60.41
2023-04-26T15:03:40.617Z,60.13
2023-04-26T15:06:10.117Z,60.71
2023-04-26T15:08:38.412Z,61.16
2023-04-26T15:11:06.744Z,61.52
2023-04-26T15:13:35.024Z,61.82
2023-04-26T15:16:08.156Z,62.07
2023-04-26T15:18:36.736Z,62.77
2023-04-26T15:21:05.000Z,63.07
2023-04-26T15:23:33.290Z,62.22
2023-04-26T15:26:04.009Z,61.79
2023-04-26T15:28:33.207Z,60.90
2023-04-26T15:31:03.483Z,60.33
2023-04-26T15:33:31.923Z,60.80
2023-04-26T15:36:00.315Z,61.04
2023-04-26T15:38:28.500Z,61.31
2023-04-26T15:40:56.904Z,61.72
2023-04-26T15:43:30.910Z,62.74
2023-04-26T15:45:59.424Z,63.60
2023-04-26T15:48:27.966Z,64.83
2023-04-26T15:50:57.025Z,65.61
2023-04-26T15:53:25.862Z,66.73
2023-04-26T15:55:54.365Z,67.35
2023-04-26T15:58:22.634Z,67.46
2023-04-26T16:00:50.911Z,67.93
2023-04-26T16:03:19.716Z,68.01
2023-04-26T16:05:48.296Z,68.03
2023-04-26T16:08:24.554Z,67.97
2023-04-26T16:11:05.014Z,68.02
2023-04-26T16:13:33.917Z,68.22
2023-04-26T16:16:06.380Z,68.43
2023-04-26T16:18:35.573Z,68.52
2023-04-26T16:21:04.874Z,68.43
2023-04-26T16:23:36.361Z,68.38
2023-04-26T16:26:06.169Z,68.26
2023-04-26T16:28:34.967Z,68.14
2023-04-26T16:31:03.969Z,67.50
2023-04-26T16:33:32.455Z,67.40
2023-04-26T16:36:04.057Z,66.66
2023-04-26T16:38:32.496Z,66.22
2023-04-26T16:41:01.889Z,64.81
2023-04-26T16:43:32.033Z,64.43
2023-04-26T16:46:05.877Z,64.44
2023-04-26T16:48:36.630Z,64.57
2023-04-26T16:51:07.647Z,64.83
2023-04-26T16:53:38.169Z,65.24
2023-04-26T16:56:07.411Z,65.52
2023-04-26T16:58:35.844Z,65.87
2023-04-26T17:01:05.041Z,65.84
2023-04-26T17:03:36.459Z,65.53
2023-04-26T17:06:06.932Z,65.25
2023-04-26T17:08:35.314Z,64.64
2023-04-26T17:11:03.803Z,64.89
2023-04-26T17:13:33.524Z,64.94
2023-04-26T17:16:02.436Z,64.97
2023-04-26T17:18:31.177Z,65.21
2023-04-26T17:21:00.144Z,65.56
2023-04-26T17:23:31.010Z,66.16
2023-04-26T17:25:59.981Z,66.71
2023-04-26T17:28:31.697Z,67.27
2023-04-26T17:31:00.815Z,67.50
2023-04-26T17:33:30.210Z,67.51
2023-04-26T17:35:58.948Z,67.51
2023-04-26T17:38:27.497Z,67.63
2023-04-26T17:40:56.190Z,67.63
2023-04-26T17:43:24.587Z,67.84
2023-04-26T17:45:53.517Z,67.79
2023-04-26T17:48:30.183Z,67.82
2023-04-26T17:50:59.374Z,67.78
2023-04-26T17:53:28.130Z,67.90
2023-04-26T17:55:56.414Z,67.77
2023-04-26T17:58:24.598Z,67.77
2023-04-26T18:00:53.868Z,67.94
2023-04-26T18:03:22.625Z,67.97
2023-04-26T18:05:51.283Z,67.98
2023-04-26T18:08:20.726Z,67.99
2023-04-26T18:10:50.606Z,68.17
2023-04-26T18:13:19.347Z,68.35
2023-04-26T18:15:48.410Z,68.57
2023-04-26T18:18:16.783Z,68.80
2023-04-26T18:20:46.615Z,68.90
2023-04-26T18:23:14.886Z,69.27
2023-04-26T18:25:43.481Z,69.58
2023-04-26T18:28:12.890Z,69.44
2023-04-26T18:30:42.008Z,69.38
2023-04-26T18:33:10.587Z,69.44
2023-04-26T18:35:39.061Z,69.28
2023-04-26T18:38:07.255Z,69.30
2023-04-26T18:40:35.945Z,69.60
2023-04-26T18:43:07.298Z,69.64
2023-04-26T18:45:35.982Z,69.79
2023-04-26T18:48:10.563Z,69.80
2023-04-26T18:50:38.784Z,69.85
2023-04-26T18:53:07.270Z,69.90
2023-04-26T18:55:35.450Z,69.95
2023-04-26T18:58:03.736Z,69.96
2023-04-26T19:00:32.696Z,70.26
2023-04-26T19:03:01.100Z,70.14
2023-04-26T19:05:29.720Z,70.14
2023-04-26T19:07:58.189Z,70.03
2023-04-26T19:10:26.986Z,70.11
2023-04-26T19:12:55.196Z,70.07
2023-04-26T19:15:23.449Z,70.17
2023-04-26T19:17:54.616Z,70.01
2023-04-26T19:20:24.005Z,69.89
2023-04-26T19:22:52.697Z,69.77
2023-04-26T19:25:23.441Z,69.68
2023-04-26T19:27:52.562Z,69.78
2023-04-26T19:30:24.810Z,69.84
2023-04-26T19:32:57.442Z,70.03
2023-04-26T19:35:28.949Z,69.82
2023-04-26T19:38:00.005Z,69.94
2023-04-26T19:40:28.582Z,69.99
2023-04-26T19:42:57.592Z,70.07
2023-04-26T19:45:29.548Z,69.91
2023-04-26T19:47:57.971Z,69.77
2023-04-26T19:50:26.525Z,69.76
2023-04-26T19:52:54.903Z,69.64
2023-04-26T19:55:23.627Z,69.61
2023-04-26T19:57:52.388Z,69.56
2023-04-26T20:00:20.884Z,69.59
2023-04-26T20:02:49.998Z,69.63
2023-04-26T20:05:18.577Z,69.64
2023-04-26T20:07:46.948Z,69.48
2023-04-26T20:10:15.867Z,69.54
2023-04-26T20:12:44.439Z,69.55
2023-04-26T20:15:15.192Z,69.37
2023-04-26T20:17:44.400Z,69.30
2023-04-26T20:20:12.887Z,69.18
2023-04-26T20:22:41.910Z,69.42
2023-04-26T20:25:10.857Z,69.51
2023-04-26T20:27:39.344Z,69.30
2023-04-26T20:30:09.307Z,69.38
2023-04-26T20:32:37.823Z,69.30
2023-04-26T20:35:07.181Z,69.38
2023-04-26T20:37:36.161Z,69.74
2023-04-26T20:40:05.218Z,69.82
2023-04-26T20:42:33.546Z,69.91
2023-04-26T20:45:03.941Z,69.93
2023-04-26T20:47:32.689Z,70.05
2023-04-26T20:50:01.357Z,70.03
2023-04-26T20:52:29.535Z,70.44
2023-04-26T20:54:57.959Z,70.43
2023-04-26T20:57:26.523Z,70.89
2023-04-26T20:59:54.894Z,70.97
2023-04-26T21:02:23.405Z,71.38
2023-04-26T21:04:52.344Z,71.70
2023-04-26T21:07:20.864Z,72.07
2023-04-26T21:09:51.805Z,72.25
2023-04-26T21:12:21.593Z,72.30
2023-04-26T21:14:50.418Z,72.29
2023-04-26T21:17:19.054Z,72.43
2023-04-26T21:19:47.601Z,72.47
2023-04-26T21:22:16.107Z,72.50
2023-04-26T21:24:44.469Z,72.24
2023-04-26T21:27:12.648Z,72.27
2023-04-26T21:29:41.365Z,72.17
2023-04-26T21:32:09.754Z,72.32
2023-04-26T21:34:38.214Z,72.22
2023-04-26T21:37:06.922Z,72.05
2023-04-26T21:39:35.497Z,72.25
2023-04-26T21:42:03.890Z,72.24
2023-04-26T21:44:32.368Z,72.30
2023-04-26T21:47:01.304Z,72.60
2023-04-26T21:49:29.953Z,72.56
2023-04-26T21:51:58.232Z,72.65
2023-04-26T21:54:26.512Z,73.01
2023-04-26T21:56:54.697Z,73.20
2023-04-26T21:59:23.080Z,73.12
2023-04-26T22:01:51.253Z,73.11
2023-04-26T22:04:19.753Z,73.42
2023-04-26T22:06:48.337Z,73.64
2023-04-26T22:09:17.086Z,73.85
2023-04-26T22:11:45.821Z,73.85
2023-04-26T22:14:14.304Z,73.97
2023-04-26T22:16:43.238Z,74.08
2023-04-26T22:19:11.956Z,74.29
2023-04-26T22:21:40.901Z,74.52
2023-04-26T22:24:09.282Z,74.61
2023-04-26T22:26:37.459Z,74.76
2023-04-26T22:29:05.849Z,74.55
2023-04-26T22:31:34.785Z,74.57
2023-04-26T22:34:03.223Z,74.80
2023-04-26T22:36:31.608Z,74.56
2023-04-26T22:38:59.791Z,74.51
2023-04-26T22:41:27.972Z,74.68
2023-04-26T22:43:57.105Z,74.29
2023-04-26T22:46:26.008Z,74.40
2023-04-26T22:48:54.663Z,74.11
2023-04-26T22:51:23.144Z,73.89
2023-04-26T22:53:51.534Z,73.84
2023-04-26T22:56:20.016Z,73.78
2023-04-26T22:58:48.707Z,73.61
2023-04-26T23:01:17.138Z,73.43
2023-04-26T23:03:45.391Z,73.04
2023-04-26T23:06:13.657Z,72.94
2023-04-26T23:08:42.041Z,72.82
2023-04-26T23:11:10.834Z,72.85
2023-04-26T23:13:39.321Z,72.77
2023-04-26T23:16:08.735Z,72.87
2023-04-26T23:18:37.426Z,73.01
2023-04-26T23:21:05.805Z,73.00
2023-04-26T23:23:34.195Z,73.16
2023-04-26T23:26:08.156Z,73.23
2023-04-26T23:28:36.995Z,73.27
2023-04-26T23:31:06.520Z,73.22
2023-04-26T23:33:34.995Z,73.41
2023-04-26T23:36:03.420Z,73.27
2023-04-26T23:38:31.769Z,73.42
2023-04-26T23:40:59.940Z,73.39
2023-04-26T23:43:28.327Z,73.59
2023-04-26T23:45:57.253Z,73.74
2023-04-26T23:48:26.126Z,73.71
2023-04-26T23:50:54.403Z,73.53
2023-04-26T23:53:22.683Z,74.00
2023-04-26T23:55:51.375Z,74.32
2023-04-26T23:58:19.557Z,74.28
